sensor_id;sensor_type;location;lat;lon;timestamp;pressure;altitude;pressure_sealevel;temperature;humidity
22311;BME280;11323;49.610;11.016;2024-03-23T00:58:23;97484.94;;;11.30;66.47
22311;BME280;11323;49.610;11.016;2024-03-23T01:03:25;97478.75;;;11.29;66.50
22311;BME280;11323;49.610;11.016;2024-03-23T01:08:26;97475.81;;;11.31;67.03
22311;BME280;11323;49.610;11.016;2024-03-23T01:13:28;97463.75;;;11.33;67.00
22311;BME280;11323;49.610;11.016;2024-03-23T01:18:29;97463.22;;;11.36;66.41
22311;BME280;11323;49.610;11.016;2024-03-23T01:23:30;97451.19;;;11.39;66.81
22311;BME280;11323;49.610;11.016;2024-03-23T01:28:31;97441.81;;;11.41;66.76
22311;BME280;11323;49.610;11.016;2024-03-23T01:33:32;97437.53;;;11.45;67.10
22311;BME280;11323;49.610;11.016;2024-03-23T01:38:33;97423.59;;;11.48;67.66
22311;BME280;11323;49.610;11.016;2024-03-23T01:43:34;97423.63;;;11.53;67.45
22311;BME280;11323;49.610;11.016;2024-03-23T01:48:35;97415.84;;;11.57;66.80
22311;BME280;11323;49.610;11.016;2024-03-23T01:53:36;97416.66;;;11.57;66.82
22311;BME280;11323;49.610;11.016;2024-03-23T01:58:38;97405.38;;;11.55;66.78
22311;BME280;11323;49.610;11.016;2024-03-23T02:03:38;97404.28;;;11.61;66.81
22311;BME280;11323;49.610;11.016;2024-03-23T02:08:40;97397.34;;;11.65;67.31
22311;BME280;11323;49.610;11.016;2024-03-23T02:13:41;97380.19;;;11.66;66.97
22311;BME280;11323;49.610;11.016;2024-03-23T02:18:42;97379.66;;;11.69;67.24
22311;BME280;11323;49.610;11.016;2024-03-23T02:23:43;97373.78;;;11.72;67.21
22311;BME280;11323;49.610;11.016;2024-03-23T02:28:44;97361.97;;;11.68;67.00
22311;BME280;11323;49.610;11.016;2024-03-23T02:33:45;97341.56;;;11.72;67.12
22311;BME280;11323;49.610;11.016;2024-03-23T02:38:47;97333.81;;;11.71;66.60
22311;BME280;11323;49.610;11.016;2024-03-23T02:43:52;97317.94;;;11.69;67.01
22311;BME280;11323;49.610;11.016;2024-03-23T02:48:53;97330.84;;;11.72;66.69
22311;BME280;11323;49.610;11.016;2024-03-23T02:53:54;97309.13;;;11.69;67.26
22311;BME280;11323;49.610;11.016;2024-03-23T02:58:55;97313.06;;;11.61;67.47
22311;BME280;11323;49.610;11.016;2024-03-23T03:03:56;97288.44;;;11.69;66.72
22311;BME280;11323;49.610;11.016;2024-03-23T03:08:57;97281.97;;;11.60;67.11
22311;BME280;11323;49.610;11.016;2024-03-23T03:13:58;97287.09;;;11.72;66.64
22311;BME280;11323;49.610;11.016;2024-03-23T03:19:01;97261.06;;;11.72;66.68
22311;BME280;11323;49.610;11.016;2024-03-23T03:24:03;97258.91;;;11.69;66.47
22311;BME280;11323;49.610;11.016;2024-03-23T03:29:04;97259.44;;;11.71;66.35
22311;BME280;11323;49.610;11.016;2024-03-23T03:34:05;97254.88;;;11.77;66.68
22311;BME280;11323;49.610;11.016;2024-03-23T03:39:06;97214.66;;;11.57;67.19
22311;BME280;11323;49.610;11.016;2024-03-23T03:44:07;97211.94;;;11.52;67.00
22311;BME280;11323;49.610;11.016;2024-03-23T03:49:09;97180.59;;;11.42;67.22
22311;BME280;11323;49.610;11.016;2024-03-23T03:54:10;97183.28;;;11.47;67.16
22311;BME280;11323;49.610;11.016;2024-03-23T03:59:11;97175.47;;;11.46;66.11
22311;BME280;11323;49.610;11.016;2024-03-23T04:04:13;97162.09;;;11.36;67.01
22311;BME280;11323;49.610;11.016;2024-03-23T04:09:14;97157.53;;;11.31;66.70
22311;BME280;11323;49.610;11.016;2024-03-23T04:14:16;97155.66;;;11.27;66.75
22311;BME280;11323;49.610;11.016;2024-03-23T04:19:17;97155.94;;;11.20;67.09
22311;BME280;11323;49.610;11.016;2024-03-23T04:24:18;97143.91;;;11.13;67.01
22311;BME280;11323;49.610;11.016;2024-03-23T04:29:22;97155.94;;;11.15;67.32
22311;BME280;11323;49.610;11.016;2024-03-23T04:34:23;97157.03;;;11.14;67.17
22311;BME280;11323;49.610;11.016;2024-03-23T04:39:24;97165.59;;;11.16;67.43
22311;BME280;11323;49.610;11.016;2024-03-23T04:44:25;97167.75;;;11.14;67.55
22311;BME280;11323;49.610;11.016;2024-03-23T04:49:26;97175.22;;;11.07;67.18
22311;BME280;11323;49.610;11.016;2024-03-23T04:54:27;97114.69;;;11.01;67.56
22311;BME280;11323;49.610;11.016;2024-03-23T04:59:29;97142.53;;;11.20;67.74
22311;BME280;11323;49.610;11.016;2024-03-23T05:04:30;97147.88;;;11.15;68.02
22311;BME280;11323;49.610;11.016;2024-03-23T05:14:48;97115.72;;;11.15;67.78
22311;BME280;11323;49.610;11.016;2024-03-23T05:19:50;97110.06;;;11.27;67.63
22311;BME280;11323;49.610;11.016;2024-03-23T05:24:55;97108.75;;;11.29;68.00
22311;BME280;11323;49.610;11.016;2024-03-23T05:29:56;97089.47;;;11.22;68.13
22311;BME280;11323;49.610;11.016;2024-03-23T05:34:57;97122.69;;;11.31;67.52
22311;BME280;11323;49.610;11.016;2024-03-23T05:40:00;97120.50;;;11.38;68.09
22311;BME280;11323;49.610;11.016;2024-03-23T05:45:01;97111.91;;;11.46;67.62
22311;BME280;11323;49.610;11.016;2024-03-23T05:50:02;97110.84;;;11.42;68.26
22311;BME280;11323;49.610;11.016;2024-03-23T05:55:05;97108.16;;;11.52;67.74
22311;BME280;11323;49.610;11.016;2024-03-23T06:00:07;97109.75;;;11.58;68.24
22311;BME280;11323;49.610;11.016;2024-03-23T06:05:16;97095.25;;;11.59;67.44
22311;BME280;11323;49.610;11.016;2024-03-23T06:10:18;97102.78;;;11.62;67.94
22311;BME280;11323;49.610;11.016;2024-03-23T06:15:20;97095.25;;;11.59;68.28
22311;BME280;11323;49.610;11.016;2024-03-23T06:20:21;97088.81;;;11.65;67.84
22311;BME280;11323;49.610;11.016;2024-03-23T06:25:22;97081.84;;;11.64;67.78
22311;BME280;11323;49.610;11.016;2024-03-23T06:30:24;97098.47;;;11.71;67.40
22311;BME280;11323;49.610;11.016;2024-03-23T06:35:25;97103.31;;;11.74;67.74
22311;BME280;11323;49.610;11.016;2024-03-23T06:40:27;97080.22;;;11.73;67.88
22311;BME280;11323;49.610;11.016;2024-03-23T06:45:28;97077.25;;;11.80;67.86
22311;BME280;11323;49.610;11.016;2024-03-23T06:50:30;97084.47;;;11.85;67.32
22311;BME280;11323;49.610;11.016;2024-03-23T06:55:31;97083.41;;;11.86;68.19
22311;BME280;11323;49.610;11.016;2024-03-23T07:00:32;97100.56;;;11.90;67.92
22311;BME280;11323;49.610;11.016;2024-03-23T07:05:33;97110.72;;;11.93;67.98
22311;BME280;11323;49.610;11.016;2024-03-23T07:10:40;97106.75;;;11.90;68.15
22311;BME280;11323;49.610;11.016;2024-03-23T07:15:41;97117.72;;;11.89;67.46
22311;BME280;11323;49.610;11.016;2024-03-23T07:20:56;97119.34;;;11.90;67.96
22311;BME280;11323;49.610;11.016;2024-03-23T07:26:04;97123.38;;;11.92;68.10
22311;BME280;11323;49.610;11.016;2024-03-23T07:31:10;97128.22;;;11.90;67.46
22311;BME280;11323;49.610;11.016;2024-03-23T07:36:12;97150.47;;;11.91;67.95
22311;BME280;11323;49.610;11.016;2024-03-23T07:41:21;97157.72;;;11.85;68.49
22311;BME280;11323;49.610;11.016;2024-03-23T07:46:23;97169.31;;;11.81;68.85
22311;BME280;11323;49.610;11.016;2024-03-23T07:51:26;97183.25;;;11.77;68.51
22311;BME280;11323;49.610;11.016;2024-03-23T07:56:27;97204.72;;;11.67;69.04
22311;BME280;11323;49.610;11.016;2024-03-23T08:01:28;97218.16;;;11.72;68.91
22311;BME280;11323;49.610;11.016;2024-03-23T08:06:30;97208.72;;;11.75;68.49
22311;BME280;11323;49.610;11.016;2024-03-23T08:16:48;97256.47;;;11.58;68.40
22311;BME280;11323;49.610;11.016;2024-03-23T08:21:51;97261.84;;;11.48;69.26
22311;BME280;11323;49.610;11.016;2024-03-23T08:37:18;97293.50;;;11.51;68.10
22311;BME280;11323;49.610;11.016;2024-03-23T08:42:20;97332.38;;;11.48;67.99
22311;BME280;11323;49.610;11.016;2024-03-23T08:47:21;97369.91;;;11.28;68.01
22311;BME280;11323;49.610;11.016;2024-03-23T08:52:22;97388.06;;;11.11;67.39
22311;BME280;11323;49.610;11.016;2024-03-23T08:57:24;97399.81;;;11.00;68.45
22311;BME280;11323;49.610;11.016;2024-03-23T09:02:25;97415.91;;;10.95;68.01
22311;BME280;11323;49.610;11.016;2024-03-23T09:07:26;97445.81;;;10.82;68.12
22311;BME280;11323;49.610;11.016;2024-03-23T09:12:27;97462.41;;;10.74;68.36
22311;BME280;11323;49.610;11.016;2024-03-23T09:17:28;97459.88;;;10.99;67.32
22311;BME280;11323;49.610;11.016;2024-03-23T09:22:29;97462.13;;;11.27;67.16
22311;BME280;11323;49.610;11.016;2024-03-23T09:27:30;97485.22;;;11.38;67.11
22311;BME280;11323;49.610;11.016;2024-03-23T09:32:31;97495.94;;;11.33;66.88
22311;BME280;11323;49.610;11.016;2024-03-23T09:37:32;97494.97;;;11.54;66.99
22311;BME280;11323;49.610;11.016;2024-03-23T09:42:33;97497.13;;;11.62;66.32
22311;BME280;11323;49.610;11.016;2024-03-23T09:47:34;97501.19;;;11.65;65.48
22311;BME280;11323;49.610;11.016;2024-03-23T09:52:35;97506.59;;;11.75;65.29
22311;BME280;11323;49.610;11.016;2024-03-23T09:57:36;97518.66;;;11.72;65.40
22311;BME280;11323;49.610;11.016;2024-03-23T10:02:38;97532.50;;;11.54;65.31
22311;BME280;11323;49.610;11.016;2024-03-23T10:07:39;97561.94;;;11.39;64.98
22311;BME280;11323;49.610;11.016;2024-03-23T10:12:45;97554.72;;;11.45;65.41
22311;BME280;11323;49.610;11.016;2024-03-23T10:17:52;97558.72;;;11.42;65.02
22311;BME280;11323;49.610;11.016;2024-03-23T10:22:53;97571.63;;;11.45;64.95
22311;BME280;11323;49.610;11.016;2024-03-23T10:28:00;97569.63;;;11.67;64.79
22311;BME280;11323;49.610;11.016;2024-03-23T10:33:12;97554.66;;;11.82;64.04
22311;BME280;11323;49.610;11.016;2024-03-23T10:38:14;97552.22;;;11.80;63.55
22311;BME280;11323;49.610;11.016;2024-03-23T10:43:16;97582.25;;;11.72;63.45
22311;BME280;11323;49.610;11.016;2024-03-23T10:48:17;97576.38;;;11.80;63.27
22311;BME280;11323;49.610;11.016;2024-03-23T10:53:20;97583.72;;;12.00;63.49
22311;BME280;11323;49.610;11.016;2024-03-23T10:58:44;97582.03;;;11.84;63.18
22311;BME280;11323;49.610;11.016;2024-03-23T11:03:47;97594.84;;;11.66;63.54
22311;BME280;11323;49.610;11.016;2024-03-23T11:08:48;97601.44;;;11.54;63.09
22311;BME280;11323;49.610;11.016;2024-03-23T11:13:51;97600.09;;;11.51;63.51
22311;BME280;11323;49.610;11.016;2024-03-23T11:18:53;97607.00;;;11.42;63.86
22311;BME280;11323;49.610;11.016;2024-03-23T11:23:54;97596.81;;;11.39;63.60
22311;BME280;11323;49.610;11.016;2024-03-23T11:29:14;97608.66;;;11.48;63.23
22311;BME280;11323;49.610;11.016;2024-03-23T11:34:16;97598.63;;;11.75;62.10
22311;BME280;11323;49.610;11.016;2024-03-23T11:39:19;97601.75;;;11.62;62.69
22311;BME280;11323;49.610;11.016;2024-03-23T11:44:23;97618.91;;;11.61;62.71
22311;BME280;11323;49.610;11.016;2024-03-23T11:49:28;97605.44;;;11.46;62.13
22311;BME280;11323;49.610;11.016;2024-03-23T11:54:30;97612.34;;;11.37;62.83
22311;BME280;11323;49.610;11.016;2024-03-23T11:59:39;97625.22;;;11.35;62.61
22311;BME280;11323;49.610;11.016;2024-03-23T12:04:42;97620.41;;;11.37;62.45
22311;BME280;11323;49.610;11.016;2024-03-23T12:09:43;97613.97;;;11.38;61.90
22311;BME280;11323;49.610;11.016;2024-03-23T12:14:45;97617.16;;;11.30;62.06
22311;BME280;11323;49.610;11.016;2024-03-23T12:19:47;97610.44;;;11.33;61.70
22311;BME280;11323;49.610;11.016;2024-03-23T12:24:48;97594.19;;;11.49;61.68
22311;BME280;11323;49.610;11.016;2024-03-23T12:29:49;97592.16;;;11.71;60.77
22311;BME280;11323;49.610;11.016;2024-03-23T12:34:50;97590.69;;;12.01;61.06
22311;BME280;11323;49.610;11.016;2024-03-23T12:39:51;97575.41;;;12.16;59.45
22311;BME280;11323;49.610;11.016;2024-03-23T12:44:52;97578.69;;;12.28;59.95
22311;BME280;11323;49.610;11.016;2024-03-23T12:49:53;97566.06;;;12.29;59.51
22311;BME280;11323;49.610;11.016;2024-03-23T12:54:56;97567.13;;;12.43;59.55
22311;BME280;11323;49.610;11.016;2024-03-23T12:59:57;97566.59;;;12.36;58.36
22311;BME280;11323;49.610;11.016;2024-03-23T13:04:58;97577.28;;;12.16;58.64
22311;BME280;11323;49.610;11.016;2024-03-23T13:09:59;97562.75;;;11.92;59.11
22311;BME280;11323;49.610;11.016;2024-03-23T13:15:01;97562.22;;;12.00;58.84
22311;BME280;11323;49.610;11.016;2024-03-23T13:20:02;97571.38;;;12.09;57.99
22311;BME280;11323;49.610;11.016;2024-03-23T13:25:05;97562.25;;;12.20;57.94
22311;BME280;11323;49.610;11.016;2024-03-23T13:30:07;97563.91;;;12.26;57.66
22311;BME280;11323;49.610;11.016;2024-03-23T13:35:08;97545.63;;;12.13;57.43
22311;BME280;11323;49.610;11.016;2024-03-23T13:40:11;97541.84;;;12.09;57.50
22311;BME280;11323;49.610;11.016;2024-03-23T13:45:12;97545.63;;;12.13;57.30
22311;BME280;11323;49.610;11.016;2024-03-23T13:50:13;97553.66;;;12.08;57.75
22311;BME280;11323;49.610;11.016;2024-03-23T13:55:15;97553.66;;;12.08;56.27
22311;BME280;11323;49.610;11.016;2024-03-23T14:00:18;97535.94;;;12.07;56.78
22311;BME280;11323;49.610;11.016;2024-03-23T14:05:21;97535.38;;;12.05;56.76
22311;BME280;11323;49.610;11.016;2024-03-23T14:10:22;97507.22;;;12.12;56.03
22311;BME280;11323;49.610;11.016;2024-03-23T14:15:23;97527.88;;;12.12;56.58
22311;BME280;11323;49.610;11.016;2024-03-23T14:20:24;97530.81;;;11.95;56.20
22311;BME280;11323;49.610;11.016;2024-03-23T14:25:26;97529.94;;;11.74;57.42
22311;BME280;11323;49.610;11.016;2024-03-23T14:30:30;97530.47;;;11.71;57.28
22311;BME280;11323;49.610;11.016;2024-03-23T14:35:32;97504.66;;;11.65;57.79
22311;BME280;11323;49.610;11.016;2024-03-23T14:40:33;97524.53;;;11.69;57.01
22311;BME280;11323;49.610;11.016;2024-03-23T14:45:46;97519.72;;;11.71;57.01
22311;BME280;11323;49.610;11.016;2024-03-23T14:50:58;97524.03;;;11.72;56.92
22311;BME280;11323;49.610;11.016;2024-03-23T14:56:02;97524.47;;;11.54;57.38
22311;BME280;11323;49.610;11.016;2024-03-23T15:01:08;97524.97;;;11.46;57.43
22311;BME280;11323;49.610;11.016;2024-03-23T15:06:10;97512.88;;;11.39;57.98
22311;BME280;11323;49.610;11.016;2024-03-23T15:11:11;97525.72;;;11.37;57.85
22311;BME280;11323;49.610;11.016;2024-03-23T15:16:17;97530.25;;;11.26;58.75
22311;BME280;11323;49.610;11.016;2024-03-23T15:21:21;97562.91;;;11.23;58.03
22311;BME280;11323;49.610;11.016;2024-03-23T15:26:22;97547.31;;;11.10;58.59
22311;BME280;11323;49.610;11.016;2024-03-23T15:31:23;97542.44;;;11.07;58.78
22311;BME280;11323;49.610;11.016;2024-03-23T15:36:25;97545.66;;;11.09;59.17
22311;BME280;11323;49.610;11.016;2024-03-23T15:41:25;97539.47;;;11.04;59.01
22311;BME280;11323;49.610;11.016;2024-03-23T15:46:26;97532.19;;;10.94;59.21
22311;BME280;11323;49.610;11.016;2024-03-23T15:51:27;97543.94;;;10.88;59.30
22311;BME280;11323;49.610;11.016;2024-03-23T15:56:33;97525.69;;;10.85;59.45
22311;BME280;11323;49.610;11.016;2024-03-23T16:01:34;97539.53;;;10.72;59.56
22311;BME280;11323;49.610;11.016;2024-03-23T16:06:35;97541.13;;;10.68;59.57
22311;BME280;11323;49.610;11.016;2024-03-23T16:11:36;97543.53;;;10.69;59.64
22311;BME280;11323;49.610;11.016;2024-03-23T16:16:37;97531.75;;;10.70;59.90
22311;BME280;11323;49.610;11.016;2024-03-23T16:21:38;97544.84;;;10.67;59.89
22311;BME280;11323;49.610;11.016;2024-03-23T16:26:39;97556.84;;;10.59;59.99
22311;BME280;11323;49.610;11.016;2024-03-23T16:31:40;97544.75;;;10.57;60.03
22311;BME280;11323;49.610;11.016;2024-03-23T16:36:42;97542.31;;;10.50;59.78
22311;BME280;11323;49.610;11.016;2024-03-23T16:41:45;97541.41;;;10.40;60.08
22311;BME280;11323;49.610;11.016;2024-03-23T16:46:46;97546.16;;;10.33;60.10
22311;BME280;11323;49.610;11.016;2024-03-23T16:51:47;97538.16;;;10.38;59.97
22311;BME280;11323;49.610;11.016;2024-03-23T16:56:51;97548.38;;;10.41;60.03
22311;BME280;11323;49.610;11.016;2024-03-23T17:01:52;97563.44;;;10.47;59.62
22311;BME280;11323;49.610;11.016;2024-03-23T17:06:53;97546.75;;;10.40;59.51
22311;BME280;11323;49.610;11.016;2024-03-23T17:11:54;97557.06;;;10.26;59.48
22311;BME280;11323;49.610;11.016;2024-03-23T17:16:55;97568.03;;;10.25;59.97
22311;BME280;11323;49.610;11.016;2024-03-23T17:21:56;97564.78;;;10.18;59.76
22311;BME280;11323;49.610;11.016;2024-03-23T17:26:57;97558.78;;;10.11;60.19
22311;BME280;11323;49.610;11.016;2024-03-23T17:31:58;97569.44;;;10.06;60.12
22311;BME280;11323;49.610;11.016;2024-03-23T17:36:59;97569.88;;;9.97;60.30
22311;BME280;11323;49.610;11.016;2024-03-23T17:42:00;97574.63;;;9.90;60.25
22311;BME280;11323;49.610;11.016;2024-03-23T17:47:01;97578.53;;;9.83;60.68
22311;BME280;11323;49.610;11.016;2024-03-23T17:52:10;97590.03;;;9.83;60.70
22311;BME280;11323;49.610;11.016;2024-03-23T17:57:11;97596.75;;;9.86;60.31
22311;BME280;11323;49.610;11.016;2024-03-23T18:02:12;97601.84;;;9.87;60.64
22311;BME280;11323;49.610;11.016;2024-03-23T18:07:16;97602.38;;;9.84;60.78
22311;BME280;11323;49.610;11.016;2024-03-23T18:12:18;97609.00;;;9.82;60.93
22311;BME280;11323;49.610;11.016;2024-03-23T18:17:20;97620.53;;;9.82;60.97
22311;BME280;11323;49.610;11.016;2024-03-23T18:22:21;97628.56;;;9.82;60.76
22311;BME280;11323;49.610;11.016;2024-03-23T18:27:22;97619.34;;;9.73;60.83
22311;BME280;11323;49.610;11.016;2024-03-23T18:32:23;97612.66;;;9.54;62.00
22311;BME280;11323;49.610;11.016;2024-03-23T18:37:24;97611.44;;;9.40;61.45
22311;BME280;11323;49.610;11.016;2024-03-23T18:42:25;97603.97;;;9.26;62.23
22311;BME280;11323;49.610;11.016;2024-03-23T18:47:26;97603.06;;;9.15;62.27
22311;BME280;11323;49.610;11.016;2024-03-23T18:52:27;97595.69;;;9.05;62.74
22311;BME280;11323;49.610;11.016;2024-03-23T18:57:28;97602.00;;;8.99;62.80
22311;BME280;11323;49.610;11.016;2024-03-23T19:02:29;97601.69;;;8.96;62.45
22311;BME280;11323;49.610;11.016;2024-03-23T19:07:30;97604.53;;;8.89;62.80
22311;BME280;11323;49.610;11.016;2024-03-23T19:12:31;97610.13;;;8.88;62.69
22311;BME280;11323;49.610;11.016;2024-03-23T19:17:32;97599.91;;;8.85;63.06
22311;BME280;11323;49.610;11.016;2024-03-23T19:22:33;97608.72;;;8.85;63.29
22311;BME280;11323;49.610;11.016;2024-03-23T19:27:34;97613.75;;;8.82;63.26
22311;BME280;11323;49.610;11.016;2024-03-23T19:32:39;97609.69;;;8.79;63.98
22311;BME280;11323;49.610;11.016;2024-03-23T19:37:43;97612.28;;;8.74;63.99
22311;BME280;11323;49.610;11.016;2024-03-23T19:42:44;97600.63;;;8.64;63.14
22311;BME280;11323;49.610;11.016;2024-03-23T19:47:45;97591.78;;;8.63;63.66
22311;BME280;11323;49.610;11.016;2024-03-23T19:52:47;97590.25;;;8.51;63.92
22311;BME280;11323;49.610;11.016;2024-03-23T19:57:49;97580.56;;;8.45;63.74
22311;BME280;11323;49.610;11.016;2024-03-23T20:02:50;97580.22;;;8.41;63.84
22311;BME280;11323;49.610;11.016;2024-03-23T20:07:51;97575.84;;;8.35;63.65
22311;BME280;11323;49.610;11.016;2024-03-23T20:12:52;97594.44;;;8.30;64.48
22311;BME280;11323;49.610;11.016;2024-03-23T20:17:53;97590.41;;;8.28;64.28
22311;BME280;11323;49.610;11.016;2024-03-23T20:22:55;97597.84;;;8.26;63.97
22311;BME280;11323;49.610;11.016;2024-03-23T20:27:56;97610.56;;;8.23;64.67
22311;BME280;11323;49.610;11.016;2024-03-23T20:32:57;97600.84;;;8.17;64.73
22311;BME280;11323;49.610;11.016;2024-03-23T20:37:58;97604.59;;;8.16;64.44
22311;BME280;11323;49.610;11.016;2024-03-23T20:43:07;97608.03;;;8.17;64.96
22311;BME280;11323;49.610;11.016;2024-03-23T20:48:13;97603.63;;;8.23;63.84
22311;BME280;11323;49.610;11.016;2024-03-23T20:53:14;97609.91;;;8.16;64.47
22311;BME280;11323;49.610;11.016;2024-03-23T20:58:16;97603.44;;;8.12;64.78
22311;BME280;11323;49.610;11.016;2024-03-23T21:03:18;97608.09;;;8.05;64.82
22311;BME280;11323;49.610;11.016;2024-03-23T21:08:20;97599.50;;;8.03;64.73
22311;BME280;11323;49.610;11.016;2024-03-23T21:13:23;97605.34;;;8.00;64.53
22311;BME280;11323;49.610;11.016;2024-03-23T21:18:24;97602.66;;;8.00;64.35
22311;BME280;11323;49.610;11.016;2024-03-23T21:23:29;97599.44;;;7.98;64.73
22311;BME280;11323;49.610;11.016;2024-03-23T21:28:33;97600.81;;;8.01;64.57
22311;BME280;11323;49.610;11.016;2024-03-23T21:33:34;97600.50;;;7.97;64.00
22311;BME280;11323;49.610;11.016;2024-03-23T21:38:38;97593.44;;;7.91;64.47
22311;BME280;11323;49.610;11.016;2024-03-23T21:43:39;97602.97;;;7.87;64.34
22311;BME280;11323;49.610;11.016;2024-03-23T21:48:41;97601.66;;;7.90;64.24
22311;BME280;11323;49.610;11.016;2024-03-23T21:53:45;97604.69;;;7.93;64.88
22311;BME280;11323;49.610;11.016;2024-03-23T21:58:47;97600.38;;;7.92;64.69
22311;BME280;11323;49.610;11.016;2024-03-23T22:03:50;97606.84;;;7.96;64.57
22311;BME280;11323;49.610;11.016;2024-03-23T22:08:54;97597.72;;;7.92;64.98
22311;BME280;11323;49.610;11.016;2024-03-23T22:13:55;97608.63;;;7.91;64.80
22311;BME280;11323;49.610;11.016;2024-03-23T22:18:58;97596.56;;;7.88;64.50
22311;BME280;11323;49.610;11.016;2024-03-23T22:23:59;97593.66;;;7.90;65.12
22311;BME280;11323;49.610;11.016;2024-03-23T22:29:00;97590.28;;;7.94;64.52
22311;BME280;11323;49.610;11.016;2024-03-23T22:34:01;97583.41;;;7.98;64.52
22311;BME280;11323;49.610;11.016;2024-03-23T22:39:02;97588.19;;;7.96;65.09
22311;BME280;11323;49.610;11.016;2024-03-23T22:44:05;97582.34;;;7.99;64.27
22311;BME280;11323;49.610;11.016;2024-03-23T22:49:06;97581.81;;;7.97;64.20
22311;BME280;11323;49.610;11.016;2024-03-23T22:54:07;97573.81;;;7.97;64.47
22311;BME280;11323;49.610;11.016;2024-03-23T22:59:09;97563.16;;;7.97;64.35
22311;BME280;11323;49.610;11.016;2024-03-23T23:04:10;97576.47;;;7.97;65.02
22311;BME280;11323;49.610;11.016;2024-03-23T23:09:11;97560.94;;;7.94;65.06
22311;BME280;11323;49.610;11.016;2024-03-23T23:14:12;97567.41;;;7.98;64.27
22311;BME280;11323;49.610;11.016;2024-03-23T23:19:14;97568.00;;;8.00;65.30
22311;BME280;11323;49.610;11.016;2024-03-23T23:24:15;97558.94;;;8.01;64.48
22311;BME280;11323;49.610;11.016;2024-03-23T23:29:17;97555.22;;;8.02;64.80
22311;BME280;11323;49.610;11.016;2024-03-23T23:34:17;97567.75;;;8.02;64.54
22311;BME280;11323;49.610;11.016;2024-03-23T23:39:18;97553.13;;;8.04;64.47
22311;BME280;11323;49.610;11.016;2024-03-23T23:44:19;97541.97;;;8.07;64.62
22311;BME280;11323;49.610;11.016;2024-03-23T23:49:21;97548.94;;;8.08;65.12
22311;BME280;11323;49.610;11.016;2024-03-23T23:54:22;97548.13;;;8.08;64.49
22311;BME280;11323;49.610;11.016;2024-03-23T23:59:23;97541.41;;;8.05;64.44
